CKK8667 VTSP-VHHH
Flight info
| Callsign | CKK8667 |
|---|---|
| Flight time | N/A |
| Altitude | 33000 |
| Route | EMRIT1B EMRIT Y99 NONEL Y98 SURMA W42 TOPER A1 SANOT Y15 GUROK A202 VILAO A202 ASSAD A202 SAMAS A202 SIKOU V571 CANTO |
| Aircraft | B77L/H-SDE1E2E3FGHIJ2J3J4J5M1RWXY/LB1D1 |
Departure
| Time | 2026-04-27 15:43 |
|---|---|
| Airport | Phuket International Airport (VTSP) |
Arrival
| Time | N/A |
|---|---|
| Airport | Hong Kong International Airport (VHHH) |
| Time | Latitude | Longitude | Altitude | Speed | Heading |
|---|---|---|---|---|---|
| 2026-04-27 15:11 | 8.10654 | 98.30475 | 31 ft | 0 kts | 105° |
| 2026-04-27 15:35 | 8.10655 | 98.30471 | 31 ft | 3 kts | 104° |
| 2026-04-27 15:35 | 8.10659 | 98.30445 | 31 ft | 4 kts | 89° |
| 2026-04-27 15:36 | 8.10656 | 98.30420 | 31 ft | 4 kts | 69° |
| 2026-04-27 15:36 | 8.10644 | 98.30397 | 30 ft | 4 kts | 47° |
| 2026-04-27 15:36 | 8.10624 | 98.30381 | 28 ft | 4 kts | 26° |
| 2026-04-27 15:36 | 8.10605 | 98.30373 | 30 ft | 0 kts | 14° |
| 2026-04-27 15:37 | 8.10604 | 98.30373 | 30 ft | 0 kts | 14° |
| 2026-04-27 15:39 | 8.10605 | 98.30373 | 31 ft | 1 kts | 14° |
| 2026-04-27 15:39 | 8.10638 | 98.30382 | 31 ft | 10 kts | 14° |
| 2026-04-27 15:39 | 8.10733 | 98.30407 | 31 ft | 18 kts | 15° |
| 2026-04-27 15:39 | 8.10848 | 98.30439 | 31 ft | 15 kts | 17° |
| 2026-04-27 15:40 | 8.10950 | 98.30468 | 31 ft | 14 kts | 14° |
| 2026-04-27 15:40 | 8.11046 | 98.30493 | 31 ft | 13 kts | 14° |
| 2026-04-27 15:40 | 8.11085 | 98.30503 | 31 ft | 0 kts | 14° |
| 2026-04-27 15:40 | 8.11086 | 98.30503 | 31 ft | 0 kts | 14° |
| 2026-04-27 15:41 | 8.11088 | 98.30504 | 31 ft | 3 kts | 14° |
| 2026-04-27 15:41 | 8.11136 | 98.30516 | 31 ft | 12 kts | 14° |
| 2026-04-27 15:41 | 8.11216 | 98.30577 | 32 ft | 19 kts | 71° |
| 2026-04-27 15:41 | 8.11224 | 98.30622 | 32 ft | 0 kts | 81° |
| 2026-04-27 15:42 | 8.11224 | 98.30623 | 32 ft | 1 kts | 81° |
| 2026-04-27 15:42 | 8.11235 | 98.30700 | 32 ft | 28 kts | 84° |
| 2026-04-27 15:42 | 8.11273 | 98.31156 | 34 ft | 103 kts | 84° |
| 2026-04-27 15:43 | 8.11362 | 98.32098 | 60 ft | 165 kts | 84° |
| 2026-04-27 15:43 | 8.11506 | 98.33386 | 328 ft | 191 kts | 83° |
| 2026-04-27 15:43 | 8.11642 | 98.34758 | 834 ft | 209 kts | 84° |
| 2026-04-27 15:43 | 8.11783 | 98.36315 | 1070 ft | 239 kts | 84° |
| 2026-04-27 15:44 | 8.11937 | 98.38022 | 1730 ft | 247 kts | 85° |
| 2026-04-27 15:44 | 8.12096 | 98.39762 | 2520 ft | 253 kts | 85° |
| 2026-04-27 15:44 | 8.12259 | 98.41535 | 3385 ft | 255 kts | 85° |
| 2026-04-27 15:44 | 8.12426 | 98.43333 | 4189 ft | 261 kts | 85° |
| 2026-04-27 15:45 | 8.12595 | 98.45163 | 5080 ft | 264 kts | 85° |
| 2026-04-27 15:45 | 8.12767 | 98.47019 | 5881 ft | 269 kts | 85° |
| 2026-04-27 15:45 | 8.12944 | 98.48910 | 6646 ft | 274 kts | 85° |
| 2026-04-27 15:45 | 8.13122 | 98.50816 | 7421 ft | 277 kts | 85° |
| 2026-04-27 15:46 | 8.13302 | 98.52755 | 8189 ft | 280 kts | 85° |
| 2026-04-27 15:46 | 8.13485 | 98.54725 | 8977 ft | 284 kts | 85° |
| 2026-04-27 15:46 | 8.13671 | 98.56730 | 9734 ft | 289 kts | 85° |
| 2026-04-27 15:46 | 8.13860 | 98.58764 | 10348 ft | 297 kts | 85° |
| 2026-04-27 15:47 | 8.14038 | 98.60918 | 10563 ft | 321 kts | 89° |
| 2026-04-27 15:47 | 8.13874 | 98.63229 | 10743 ft | 344 kts | 98° |
| 2026-04-27 15:47 | 8.13444 | 98.65680 | 10939 ft | 367 kts | 101° |
| 2026-04-27 15:47 | 8.12938 | 98.68221 | 11422 ft | 378 kts | 101° |
| 2026-04-27 15:48 | 8.12421 | 98.70874 | 12066 ft | 385 kts | 101° |
| 2026-04-27 15:48 | 8.11929 | 98.73529 | 12790 ft | 389 kts | 100° |
| 2026-04-27 15:48 | 8.11448 | 98.76234 | 13517 ft | 393 kts | 100° |
| 2026-04-27 15:49 | 8.10529 | 98.81719 | 14803 ft | 399 kts | 95° |
| 2026-04-27 15:49 | 8.10453 | 98.84528 | 15385 ft | 403 kts | 88° |
| 2026-04-27 15:49 | 8.10580 | 98.87336 | 15993 ft | 406 kts | 87° |
| 2026-04-27 15:49 | 8.10693 | 98.90216 | 16614 ft | 410 kts | 88° |
| 2026-04-27 15:50 | 8.10755 | 98.93097 | 17219 ft | 413 kts | 89° |
| 2026-04-27 15:50 | 8.11031 | 98.95977 | 17507 ft | 420 kts | 76° |
| 2026-04-27 15:50 | 8.12130 | 98.98741 | 17766 ft | 432 kts | 60° |
| 2026-04-27 15:50 | 8.13865 | 99.01223 | 18141 ft | 439 kts | 49° |
| 2026-04-27 15:51 | 8.15984 | 99.03454 | 18527 ft | 442 kts | 46° |
| 2026-04-27 15:51 | 8.18138 | 99.05673 | 19000 ft | 445 kts | 46° |
| 2026-04-27 15:51 | 8.20296 | 99.07909 | 19481 ft | 446 kts | 46° |
| 2026-04-27 15:51 | 8.22453 | 99.10165 | 19943 ft | 449 kts | 47° |
| 2026-04-27 15:52 | 8.24615 | 99.12445 | 20387 ft | 452 kts | 47° |
| 2026-04-27 15:52 | 8.26784 | 99.14745 | 20785 ft | 455 kts | 47° |
| 2026-04-27 15:52 | 8.28940 | 99.17036 | 21167 ft | 459 kts | 47° |
| 2026-04-27 15:52 | 8.31159 | 99.19394 | 21592 ft | 461 kts | 47° |
| 2026-04-27 15:53 | 8.33382 | 99.21754 | 22005 ft | 464 kts | 47° |
| 2026-04-27 15:53 | 8.35604 | 99.24114 | 22369 ft | 467 kts | 47° |
| 2026-04-27 15:53 | 8.37842 | 99.26491 | 22729 ft | 470 kts | 47° |
| 2026-04-27 15:53 | 8.40101 | 99.28891 | 23084 ft | 473 kts | 47° |
| 2026-04-27 15:54 | 8.42428 | 99.31232 | 23365 ft | 474 kts | 40° |
| 2026-04-27 15:54 | 8.45209 | 99.33040 | 23552 ft | 482 kts | 26° |
| 2026-04-27 15:54 | 8.48365 | 99.34189 | 23825 ft | 486 kts | 15° |
| 2026-04-27 15:54 | 8.51708 | 99.34648 | 24123 ft | 488 kts | 4° |
| 2026-04-27 15:55 | 8.55106 | 99.34761 | 24393 ft | 491 kts | 3° |
| 2026-04-27 15:55 | 8.57387 | 99.34824 | 24549 ft | 493 kts | 3° |
| 2026-04-27 15:55 | 8.61963 | 99.34980 | 24848 ft | 497 kts | 4° |
| 2026-04-27 15:55 | 8.65408 | 99.35135 | 25097 ft | 499 kts | 4° |
| 2026-04-27 15:56 | 8.68888 | 99.35312 | 25357 ft | 500 kts | 4° |
| 2026-04-27 15:56 | 8.72365 | 99.35494 | 25591 ft | 503 kts | 4° |
| 2026-04-27 15:56 | 8.75859 | 99.35675 | 25799 ft | 505 kts | 4° |
| 2026-04-27 15:56 | 8.79363 | 99.35852 | 25998 ft | 507 kts | 4° |
| 2026-04-27 15:57 | 8.82894 | 99.36027 | 26223 ft | 509 kts | 4° |
| 2026-04-27 15:57 | 8.86423 | 99.36202 | 26416 ft | 511 kts | 4° |
| 2026-04-27 15:57 | 8.89977 | 99.36379 | 26582 ft | 513 kts | 4° |
| 2026-04-27 15:57 | 8.93537 | 99.36557 | 26769 ft | 514 kts | 4° |
| 2026-04-27 15:58 | 8.97103 | 99.36735 | 26949 ft | 516 kts | 4° |
| 2026-04-27 15:58 | 9.00695 | 99.36914 | 27126 ft | 517 kts | 4° |
| 2026-04-27 15:58 | 9.04285 | 99.37094 | 27280 ft | 519 kts | 4° |
| 2026-04-27 15:58 | 9.07888 | 99.37275 | 27412 ft | 521 kts | 4° |
| 2026-04-27 15:59 | 9.11502 | 99.37458 | 27553 ft | 522 kts | 4° |
| 2026-04-27 15:59 | 9.15093 | 99.37641 | 27705 ft | 523 kts | 4° |
| 2026-04-27 15:59 | 9.18757 | 99.37828 | 27848 ft | 524 kts | 4° |
| 2026-04-27 15:59 | 9.22383 | 99.38118 | 27971 ft | 524 kts | 8° |
| 2026-04-27 16:00 | 9.25983 | 99.38713 | 28062 ft | 525 kts | 13° |
| 2026-04-27 16:00 | 9.32975 | 99.40784 | 28229 ft | 526 kts | 19° |
| 2026-04-27 16:01 | 9.39945 | 99.43041 | 28434 ft | 528 kts | 18° |
| 2026-04-27 16:01 | 9.46951 | 99.45212 | 28607 ft | 529 kts | 18° |
| 2026-04-27 16:02 | 9.53994 | 99.47394 | 28776 ft | 530 kts | 18° |
| 2026-04-27 16:02 | 9.57504 | 99.48485 | 28910 ft | 529 kts | 18° |
| 2026-04-27 16:02 | 9.61011 | 99.49577 | 29042 ft | 529 kts | 18° |
| 2026-04-27 16:02 | 9.64522 | 99.50671 | 29179 ft | 528 kts | 18° |
| 2026-04-27 16:03 | 9.68028 | 99.51764 | 29321 ft | 528 kts | 18° |
| 2026-04-27 16:03 | 9.71535 | 99.52857 | 29446 ft | 528 kts | 18° |
| 2026-04-27 16:03 | 9.75041 | 99.53949 | 29583 ft | 528 kts | 18° |
| 2026-04-27 16:03 | 9.78547 | 99.55042 | 29742 ft | 527 kts | 18° |
| 2026-04-27 16:04 | 9.82040 | 99.56130 | 29910 ft | 526 kts | 18° |
| 2026-04-27 16:04 | 9.85524 | 99.57216 | 30083 ft | 525 kts | 18° |
| 2026-04-27 16:04 | 9.89006 | 99.58301 | 30255 ft | 524 kts | 17° |
| 2026-04-27 16:04 | 9.92482 | 99.59385 | 30428 ft | 523 kts | 17° |
| 2026-04-27 16:05 | 9.95944 | 99.60464 | 30639 ft | 521 kts | 17° |
| 2026-04-27 16:05 | 9.99397 | 99.61540 | 30788 ft | 521 kts | 17° |
| 2026-04-27 16:05 | 10.02829 | 99.62611 | 30892 ft | 522 kts | 17° |
| 2026-04-27 16:05 | 10.06317 | 99.63700 | 31076 ft | 520 kts | 17° |
| 2026-04-27 16:06 | 10.09760 | 99.64776 | 31313 ft | 518 kts | 17° |
| 2026-04-27 16:06 | 10.13190 | 99.65848 | 31534 ft | 517 kts | 17° |
| 2026-04-27 16:06 | 10.16625 | 99.66920 | 31741 ft | 516 kts | 17° |
| 2026-04-27 16:06 | 10.20049 | 99.67989 | 31979 ft | 515 kts | 17° |
| 2026-04-27 16:07 | 10.23474 | 99.69060 | 32084 ft | 517 kts | 17° |
| 2026-04-27 16:07 | 10.26908 | 99.70134 | 32204 ft | 518 kts | 17° |
| 2026-04-27 16:07 | 10.30353 | 99.71211 | 32342 ft | 519 kts | 17° |
| 2026-04-27 16:07 | 10.33798 | 99.72288 | 32479 ft | 520 kts | 17° |
| 2026-04-27 16:08 | 10.37243 | 99.73365 | 32680 ft | 519 kts | 17° |
| 2026-04-27 16:08 | 10.40690 | 99.74442 | 32784 ft | 520 kts | 17° |
| 2026-04-27 16:08 | 10.44096 | 99.75509 | 32829 ft | 522 kts | 17° |
| 2026-04-27 16:09 | 10.50971 | 99.77662 | 32853 ft | 507 kts | 17° |
| 2026-04-27 16:09 | 10.60966 | 99.80794 | 32861 ft | 498 kts | 16° |
| 2026-04-27 16:10 | 10.74065 | 99.84901 | 32875 ft | 494 kts | 16° |
| 2026-04-27 16:11 | 10.83939 | 99.87999 | 32881 ft | 495 kts | 16° |
| 2026-04-27 16:12 | 10.93429 | 99.92090 | 32877 ft | 498 kts | 28° |
| 2026-04-27 16:13 | 11.02480 | 99.97275 | 32871 ft | 500 kts | 28° |
| 2026-04-27 16:13 | 11.11578 | 100.02421 | 32871 ft | 501 kts | 28° |
| 2026-04-27 16:14 | 11.23773 | 100.09273 | 32881 ft | 505 kts | 28° |
| 2026-04-27 16:15 | 11.36187 | 100.16262 | 32876 ft | 516 kts | 28° |
| 2026-04-27 16:16 | 11.37228 | 100.16849 | 32876 ft | 517 kts | 28° |